Forside
METAR-TAF:

METAR-TAF

Lufthavne :

Tulsa, Oklahoma, USA

Breddekreds: 36-11-51N, længdekreds: 095-53-11W, højde: 206 m

Aktuelle vejr

Denne rapport blev lavet for 45 minutter siden, kl. 23:53 UTC
Vind 4 kt fra nordnordøst
Temperatur 2°C
Fugtighed 37%
Tryk 1028 hPa
Sigt: 16.1 km
skyfri

METAR: KTUL 142353Z 02004KT 10SM CLR 02/M11 A3035 RMK AO2 SLP284 T00221111 10056 20022 56011

Tid: 18:38 (00:38 UTC)

Vejrudsigter

Denne rapport blev lavet for 1 time og 16 minutter siden, kl. 23:22 UTC
Foreløbig gælder fra 15 på 00 UTC til 15 på 24 UTC
Vind 3 kt fra varierende retninger
Sigt: 10 km
skyfri
Fra 15 på 1700 UTC
Vind 9 kt fra syd
Sigt: 10 km
skyfri

TAF: KTUL 142322Z 1500/1524 VRB03KT P6SM SKC FM151700 17009KT P6SM SKC

Vejrobservationer og prognoser fra mere end 4000 lufthavne (METAR og TAF).

De gule og røde prikker repræsenterer de meteorologiske stationer.

Flyt musen over at se navnet på stationen.

Så klik over at se vejr observationer og prognoser.

At skifte det kort: Klik på de grønne knapper med et sort kors for at zoome ind; på den grønne knap med en bindestreg for at zoome ud; eller på de grønne pile for tilstødende kort.


METAR-TAF: